20:08
Airports
History
Links
Donate
Help keep this website running!
PayPal
Bitcoin
This page is community maintained. The information is intended for PC simulator navigation or reference.
Always use approved charts for navigation.
LFBL
Limoges Bellegarde
Limoges Bellegarde (LFBL)
Limoges, Limousin, France (87100)
(C)
Lat/Lng:45° 51' 42.83" N / 1° 10' 52.92" E
45.861896 / 1.181368
Elevation:1300'ft / 396mMSL
ID / ICAO:LFBL
Runways:1
Longest:03-21
Asphalt 2,495m / 8,184ft
Controlled:Yes
METAR20:00 GMT 2017-11-22
Altimeter: 29.80
Visibility: 6.2 statute miles
Wind: 12 knots (from 160°)
Temp: 11°c / 52°f
Humidity: 71.2%

METAR: LFBL 222000Z AUTO 16012KT CAVOK 11/06 Q1009 NOSIG

(Powered by phpweather)
Airport Radio Frequencies
ATIS: 128.07
Tower: 124.05, 118.17
Approach: 119.2
Nearby VORs <50NM
Nearby NDBs
Runway 03 / 21
Dimensions:2494.5 x 45.1m 8184' x 148'ft
Surface:Asphalt
Edge Lights:High intensity
Runway 03 [A]Runway 21 [B]
Heading:033°TH 213°TH
Lat:
Lng:
45° 51' 8.96"N
1° 10' 21.14"E
45° 52' 16.69"N
1° 11' 24.71"E
TDZ:Yes, lighted
User Notes and Comments
45° 51' 42.83" N / 1° 10' 52.92" E
Distance To
Airport ID:
Nearby Airports
(U) Saint Junien 12.9 NM
LFBJ WNW 282°
(U) Gueret Saint Laurent 43.4 NM
LFCE ENE 60°
4 Jonzac Neulles 45.1 NM
LFCJ SW 234°
(C) Angouleme Brie Champniers 47.3 NM
LFBU WSW 258°
(U) Perigueux Bassillac 49.2 NM
LFBX SSW 201°
(U) Brive la Roche 51.1 NM
LFBV ( WX ) SSE 164°
4 Condat sur Vezere 52.3 NM
LFDZ S 178°
VFR Chart
Flight Planning at SkyVector.com